createdAt,value
2023-03-24T00:01:25.746Z,60724.19
2023-03-24T00:03:54.484Z,60718.88
2023-03-24T00:06:23.645Z,60713.59
2023-03-24T00:08:53.076Z,60717.50
2023-03-24T00:11:23.202Z,60718.22
2023-03-24T00:13:51.732Z,60712.91
2023-03-24T00:16:21.934Z,60718.06
2023-03-24T00:18:53.066Z,60716.56
2023-03-24T00:21:24.751Z,60710.34
2023-03-24T00:23:55.656Z,60713.44
2023-03-24T00:26:26.634Z,60717.66
2023-03-24T00:28:57.070Z,60716.72
2023-03-24T00:31:26.056Z,60722.16
2023-03-24T00:33:55.610Z,60719.97
2023-03-24T00:36:25.825Z,60719.56
2023-03-24T00:38:54.981Z,60723.25
2023-03-24T00:41:27.173Z,60728.69
2023-03-24T00:43:58.403Z,60725.97
2023-03-24T00:46:30.732Z,60725.69
2023-03-24T00:49:05.936Z,60734.13
2023-03-24T00:51:37.372Z,60734.13
2023-03-24T00:54:06.991Z,60731.41
2023-03-24T00:56:40.392Z,60736.56
2023-03-24T00:59:10.450Z,60729.75
2023-03-24T01:01:41.054Z,60729.06
2023-03-24T01:04:11.331Z,60730.16
2023-03-24T01:06:41.220Z,60731.00
2023-03-24T01:09:10.678Z,60730.84
2023-03-24T01:11:42.337Z,60726.50
2023-03-24T01:14:12.117Z,60731.94
2023-03-24T01:16:42.045Z,60720.94
2023-03-24T01:19:10.966Z,60730.84
2023-03-24T01:21:42.228Z,60728.81
2023-03-24T01:24:11.200Z,60728.69
2023-03-24T01:26:41.327Z,60723.38
2023-03-24T01:29:09.849Z,60720.66
2023-03-24T01:31:38.468Z,60724.31
2023-03-24T01:34:07.083Z,60727.97
2023-03-24T01:36:35.730Z,60729.06
2023-03-24T01:39:05.465Z,60726.50
2023-03-24T01:41:37.340Z,60725.56
2023-03-24T01:44:26.331Z,60726.78
2023-03-24T01:46:55.331Z,60732.34
2023-03-24T01:49:26.702Z,60727.03
2023-03-24T01:51:59.532Z,60723.78
2023-03-24T01:54:31.702Z,60724.72
2023-03-24T01:57:06.329Z,60716.72
2023-03-24T01:59:39.073Z,60711.56
2023-03-24T02:02:08.136Z,60714.53
2023-03-24T02:04:42.097Z,60718.22
2023-03-24T02:07:17.530Z,60717.66
2023-03-24T02:09:46.914Z,60714.53
2023-03-24T02:12:16.281Z,60714.00
2023-03-24T02:14:46.727Z,60712.34
2023-03-24T02:17:30.214Z,60709.38
2023-03-24T02:20:21.448Z,60716.44
2023-03-24T02:23:19.490Z,60708.28
2023-03-24T02:26:36.293Z,60713.06
2023-03-24T02:29:22.162Z,60711.81
2023-03-24T02:32:10.418Z,60712.34
2023-03-24T02:35:03.031Z,60708.69
2023-03-24T02:38:04.339Z,60708.69
2023-03-24T02:40:41.590Z,60710.19
2023-03-24T02:43:33.360Z,60711.66
2023-03-24T02:46:14.161Z,60715.34
2023-03-24T02:48:54.649Z,60712.34
2023-03-24T02:51:28.749Z,60717.25
2023-03-24T02:54:06.230Z,60717.25
2023-03-24T02:56:40.242Z,60720.25
2023-03-24T02:59:16.769Z,60726.50
2023-03-24T03:01:54.123Z,60730.16
2023-03-24T03:04:29.404Z,60726.50
2023-03-24T03:07:00.867Z,60718.09
2023-03-24T03:09:30.802Z,60720.50
2023-03-24T03:12:02.046Z,60725.81
2023-03-24T03:14:36.402Z,60717.53
2023-03-24T03:17:07.241Z,60721.59
2023-03-24T03:19:39.806Z,60716.16
2023-03-24T03:22:14.998Z,60715.63
2023-03-24T03:24:46.874Z,60711.94
2023-03-24T03:27:21.093Z,60716.72
2023-03-24T03:29:55.090Z,60710.47
2023-03-24T03:32:28.334Z,60711.94
2023-03-24T03:35:01.478Z,60714.13
2023-03-24T03:37:35.743Z,60722.16
2023-03-24T03:40:08.021Z,60724.88
2023-03-24T03:42:38.169Z,60710.47
2023-03-24T03:45:09.504Z,60717.09
2023-03-24T03:47:38.484Z,60710.19
2023-03-24T03:50:10.149Z,60708.94
2023-03-24T03:52:41.559Z,60704.19
2023-03-24T03:55:11.999Z,60704.75
2023-03-24T03:57:42.802Z,60705.28
2023-03-24T04:00:17.243Z,60706.91
2023-03-24T04:02:56.521Z,60701.63
2023-03-24T04:05:29.332Z,60707.47
2023-03-24T04:08:21.995Z,60718.59
2023-03-24T04:11:16.235Z,60713.44
2023-03-24T04:13:54.624Z,60711.81
2023-03-24T04:16:33.985Z,60706.13
2023-03-24T04:19:19.542Z,60718.22
2023-03-24T04:22:04.482Z,60711.81
2023-03-24T04:24:44.259Z,60714.94
2023-03-24T04:27:21.984Z,60710.19
2023-03-24T04:30:02.619Z,60711.94
2023-03-24T04:32:36.755Z,60723.66
2023-03-24T04:35:11.462Z,60720.50
2023-03-24T04:37:40.928Z,60724.88
2023-03-24T04:40:12.082Z,60724.31
2023-03-24T04:42:45.421Z,60727.03
2023-03-24T04:45:17.519Z,60722.44
2023-03-24T04:47:51.022Z,60738.56
2023-03-24T04:50:30.943Z,60729.34
2023-03-24T04:53:00.555Z,60739.28
2023-03-24T04:55:49.255Z,60737.38
2023-03-24T04:58:18.432Z,60744.31
2023-03-24T05:00:49.193Z,60739.84
2023-03-24T05:03:19.239Z,60746.09
2023-03-24T05:05:50.134Z,60749.75
2023-03-24T05:08:19.512Z,60746.75
2023-03-24T05:10:48.491Z,60752.63
2023-03-24T05:13:16.971Z,60761.19
2023-03-24T05:15:45.818Z,60766.06
2023-03-24T05:18:15.878Z,60760.91
2023-03-24T05:20:44.258Z,60762.94
2023-03-24T05:23:12.736Z,60766.06
2023-03-24T05:25:41.251Z,60771.25
2023-03-24T05:28:09.776Z,60773.84
2023-03-24T05:30:38.378Z,60777.09
2023-03-24T05:33:07.112Z,60779.13
2023-03-24T05:35:36.987Z,60785.41
2023-03-24T05:38:05.576Z,60801.91
2023-03-24T05:40:34.074Z,60805.28
2023-03-24T05:43:02.568Z,60800.50
2023-03-24T05:45:31.029Z,60802.13
2023-03-24T05:47:59.479Z,60804.34
2023-03-24T05:50:28.024Z,60805.56
2023-03-24T05:52:58.259Z,60810.03
2023-03-24T05:55:27.495Z,60816.44
2023-03-24T05:57:56.316Z,60815.91
2023-03-24T06:00:24.859Z,60809.38
2023-03-24T06:02:53.609Z,60812.09
2023-03-24T06:05:22.220Z,60815.06
2023-03-24T06:07:50.822Z,60813.59
2023-03-24T06:10:22.405Z,60809.91
2023-03-24T06:12:51.064Z,60809.50
2023-03-24T06:15:20.082Z,60816.84
2023-03-24T06:17:50.376Z,60818.75
2023-03-24T06:20:18.970Z,60821.19
2023-03-24T06:22:48.504Z,60817.41
2023-03-24T06:25:20.394Z,60816.44
2023-03-24T06:27:50.194Z,60825.56
2023-03-24T06:30:19.526Z,60831.81
2023-03-24T06:32:48.001Z,60834.25
2023-03-24T06:35:17.235Z,60826.94
2023-03-24T06:37:46.021Z,60835.38
2023-03-24T06:40:16.305Z,60841.75
2023-03-24T06:42:44.731Z,60840.81
2023-03-24T06:45:14.540Z,60846.00
2023-03-24T06:47:42.961Z,60854.41
2023-03-24T06:50:12.258Z,60865.88
2023-03-24T06:52:41.353Z,60860.97
2023-03-24T06:55:10.915Z,60857.13
2023-03-24T06:57:39.414Z,60867.75
2023-03-24T07:00:10.431Z,60867.34
2023-03-24T07:02:40.641Z,60862.34
2023-03-24T07:05:11.072Z,60866.94
2023-03-24T07:08:23.615Z,60875.56
2023-03-24T07:10:29.998Z,60877.88
2023-03-24T07:12:59.636Z,60877.31
2023-03-24T07:15:28.206Z,60881.28
2023-03-24T07:17:58.080Z,60891.22
2023-03-24T07:20:26.626Z,60897.50
2023-03-24T07:22:56.961Z,60899.66
2023-03-24T07:25:26.255Z,60894.50
2023-03-24T07:27:54.974Z,60902.38
2023-03-24T07:30:30.025Z,60904.69
2023-03-24T07:33:10.133Z,60916.41
2023-03-24T07:35:38.633Z,60923.50
2023-03-24T07:38:07.264Z,60932.75
2023-03-24T07:40:36.138Z,60935.75
2023-03-24T07:43:06.642Z,60945.59
2023-03-24T07:45:35.195Z,60953.63
2023-03-24T07:48:03.894Z,60960.56
2023-03-24T07:50:34.246Z,60968.06
2023-03-24T07:53:02.673Z,60971.63
2023-03-24T07:55:31.214Z,60972.72
2023-03-24T07:57:59.602Z,60977.06
2023-03-24T08:00:29.194Z,60970.66
2023-03-24T08:02:58.147Z,60968.63
2023-03-24T08:05:29.865Z,60978.16
2023-03-24T08:08:00.297Z,60958.81
2023-03-24T08:10:30.744Z,60953.75
2023-03-24T08:13:00.318Z,60952.25
2023-03-24T08:15:29.941Z,60955.25
2023-03-24T08:17:58.483Z,60943.56
2023-03-24T08:20:29.573Z,60945.44
2023-03-24T08:23:00.936Z,60943.56
2023-03-24T08:25:29.426Z,60940.53
2023-03-24T08:27:57.991Z,60945.44
2023-03-24T08:30:28.237Z,60935.63
2023-03-24T08:32:59.261Z,60933.44
2023-03-24T08:35:31.505Z,60928.00
2023-03-24T08:38:06.177Z,60921.47
2023-03-24T08:40:36.126Z,60929.09
2023-03-24T08:43:08.568Z,60929.91
2023-03-24T08:45:37.979Z,60915.22
2023-03-24T08:48:08.679Z,60918.88
2023-03-24T08:50:40.975Z,60922.13
2023-03-24T08:53:12.350Z,60931.81
2023-03-24T08:55:43.348Z,60925.28
2023-03-24T08:58:14.962Z,60924.72
2023-03-24T09:00:44.255Z,60935.09
2023-03-24T09:03:18.242Z,60938.22
2023-03-24T09:05:47.985Z,60937.81
2023-03-24T09:08:19.702Z,60935.09
2023-03-24T09:10:48.305Z,60933.44
2023-03-24T09:13:17.042Z,60937.41
2023-03-24T09:15:49.570Z,60940.13
2023-03-24T09:18:19.115Z,60946.53
2023-03-24T09:20:48.497Z,60953.06
2023-03-24T09:23:18.883Z,60949.81
2023-03-24T09:25:49.409Z,60954.72
2023-03-24T09:28:17.982Z,60948.97
2023-03-24T09:30:46.724Z,60963.97
2023-03-24T09:33:15.461Z,60958.25
2023-03-24T09:35:44.066Z,60968.63
2023-03-24T09:38:12.678Z,60979.63
2023-03-24T09:40:43.755Z,60982.91
2023-03-24T09:43:23.858Z,61000.66
2023-03-24T09:45:55.909Z,61017.44
2023-03-24T09:48:35.022Z,61019.91
2023-03-24T09:51:08.488Z,61048.41
2023-03-24T09:53:44.149Z,61048.66
2023-03-24T09:56:17.043Z,61062.59
2023-03-24T09:58:50.206Z,61064.38
2023-03-24T10:01:19.341Z,61068.31
2023-03-24T10:03:47.960Z,61079.91
2023-03-24T10:06:23.157Z,61091.94
2023-03-24T10:08:59.563Z,61091.66
2023-03-24T10:11:39.983Z,61086.47
2023-03-24T10:14:22.011Z,61107.06
2023-03-24T10:16:57.245Z,61108.16
2023-03-24T10:19:44.777Z,61117.44
2023-03-24T10:22:20.574Z,61124.41
2023-03-24T10:24:55.505Z,61135.06
2023-03-24T10:27:32.143Z,61138.75
2023-03-24T10:30:08.080Z,61140.78
2023-03-24T10:32:37.980Z,61138.19
2023-03-24T10:35:10.187Z,61142.00
2023-03-24T10:37:39.431Z,61155.69
2023-03-24T10:40:18.027Z,61160.06
2023-03-24T10:43:09.389Z,61169.47
2023-03-24T10:45:42.089Z,61203.06
2023-03-24T10:48:13.591Z,61205.53
2023-03-24T10:50:45.612Z,61205.38
2023-03-24T10:53:19.686Z,61195.56
2023-03-24T10:55:50.940Z,61192.84
2023-03-24T10:58:31.284Z,61194.34
2023-03-24T11:01:01.225Z,61187.50
2023-03-24T11:03:32.810Z,61189.16
2023-03-24T11:06:02.992Z,61191.59
2023-03-24T11:08:37.074Z,61197.59
2023-03-24T11:11:16.685Z,61197.59
2023-03-24T11:13:55.744Z,61197.06
2023-03-24T11:16:29.682Z,61195.16
2023-03-24T11:19:01.114Z,61212.34
2023-03-24T11:21:31.678Z,61218.91
2023-03-24T11:24:01.320Z,61225.88
2023-03-24T11:26:32.832Z,61264.81
2023-03-24T11:29:07.592Z,61304.22
2023-03-24T11:31:38.417Z,61289.44
2023-03-24T11:34:10.769Z,61275.50
2023-03-24T11:36:50.874Z,61266.75
2023-03-24T11:39:22.210Z,61269.19
2023-03-24T11:42:18.362Z,61285.91
2023-03-24T11:44:51.396Z,61296.84
2023-03-24T11:47:25.421Z,61297.13
2023-03-24T11:50:02.380Z,61287.41
2023-03-24T11:52:35.789Z,61297.78
2023-03-24T11:55:06.222Z,61275.50
2023-03-24T11:57:52.205Z,61278.50
2023-03-24T12:00:29.164Z,61268.53
2023-03-24T12:03:17.455Z,61270.84
2023-03-24T12:05:51.625Z,61276.88
2023-03-24T12:08:25.839Z,61279.50
2023-03-24T12:11:09.217Z,61284.13
2023-03-24T12:13:40.455Z,61262.34
2023-03-24T12:16:40.418Z,61251.16
2023-03-24T12:19:40.200Z,61250.34
2023-03-24T12:22:21.245Z,61246.66
2023-03-24T12:25:10.347Z,61252.41
2023-03-24T12:27:49.511Z,61258.00
2023-03-24T12:30:27.442Z,61262.22
2023-03-24T12:33:12.620Z,61256.50
2023-03-24T12:36:08.374Z,61239.97
2023-03-24T12:38:51.836Z,61255.13
2023-03-24T12:41:52.702Z,61247.88
2023-03-24T12:44:47.105Z,61246.50
2023-03-24T12:47:28.261Z,61241.59
2023-03-24T12:50:09.632Z,61239.41
2023-03-24T12:53:07.758Z,61236.13
2023-03-24T12:55:43.361Z,61223.16
2023-03-24T12:58:18.961Z,61218.66
2023-03-24T13:01:00.011Z,61214.69
2023-03-24T13:03:33.869Z,61214.28
2023-03-24T13:06:17.527Z,61200.06
2023-03-24T13:08:56.608Z,61214.00
2023-03-24T13:11:36.041Z,61204.56
2023-03-24T13:14:12.428Z,61198.97
2023-03-24T13:16:41.956Z,61192.41
2023-03-24T13:19:18.953Z,61172.75
2023-03-24T13:21:50.583Z,61167.69
2023-03-24T13:24:20.981Z,61140.38
2023-03-24T13:26:58.748Z,61110.75
2023-03-24T13:29:49.035Z,61092.47
2023-03-24T13:32:29.307Z,61062.16
2023-03-24T13:35:02.898Z,61040.34
2023-03-24T13:37:37.448Z,61020.19
2023-03-24T13:40:12.038Z,61008.28
2023-03-24T13:42:45.476Z,61005.56
2023-03-24T13:45:26.088Z,60986.34
2023-03-24T13:48:05.944Z,60986.34
2023-03-24T13:50:36.111Z,60985.78
2023-03-24T13:53:13.971Z,61002.81
2023-03-24T13:55:49.565Z,61011.00
2023-03-24T13:58:22.392Z,61020.84
2023-03-24T14:01:07.337Z,61036.53
2023-03-24T14:03:38.563Z,61031.75
2023-03-24T14:06:09.913Z,61025.34
2023-03-24T14:08:55.754Z,61034.06
2023-03-24T14:11:45.621Z,61036.13
2023-03-24T14:14:22.707Z,61019.09
2023-03-24T14:16:53.545Z,61000.09
2023-03-24T14:19:31.245Z,60963.31
2023-03-24T14:22:10.485Z,60955.94
2023-03-24T14:24:42.371Z,60945.44
2023-03-24T14:27:37.070Z,60938.09
2023-03-24T14:30:20.218Z,60933.19
2023-03-24T14:32:52.155Z,60935.38
2023-03-24T14:35:27.096Z,60937.41
2023-03-24T14:37:59.971Z,60940.00
2023-03-24T14:40:36.524Z,60948.72
2023-03-24T14:43:18.153Z,60966.56
2023-03-24T14:45:56.259Z,60962.06
2023-03-24T14:48:30.599Z,60977.19
2023-03-24T14:51:02.022Z,60980.63
2023-03-24T14:53:31.138Z,60983.47
2023-03-24T14:56:01.213Z,60997.78
2023-03-24T14:58:35.939Z,61003.25
2023-03-24T15:01:08.141Z,61013.34
2023-03-24T15:03:45.969Z,61030.81
2023-03-24T15:06:17.140Z,61036.00
2023-03-24T15:08:47.285Z,61051.13
2023-03-24T15:11:20.063Z,61050.31
2023-03-24T15:13:51.075Z,61046.50
2023-03-24T15:16:23.912Z,61058.50
2023-03-24T15:21:30.959Z,61093.84
2023-03-24T15:24:01.330Z,61088.09
2023-03-24T15:26:33.046Z,61095.19
2023-03-24T15:29:03.994Z,61090.00
2023-03-24T15:31:48.052Z,61098.47
2023-03-24T15:34:27.520Z,61106.53
2023-03-24T15:36:57.561Z,61130.81
2023-03-24T15:39:28.771Z,61142.16
2023-03-24T15:42:13.658Z,61150.22
2023-03-24T15:44:48.875Z,61152.41
2023-03-24T15:47:23.672Z,61163.75
2023-03-24T15:49:54.269Z,61164.44
2023-03-24T15:52:32.191Z,61174.13
2023-03-24T15:55:03.930Z,61168.38
2023-03-24T15:57:51.206Z,61161.97
2023-03-24T16:00:38.731Z,61167.28
2023-03-24T16:03:15.311Z,61158.41
2023-03-24T16:05:48.433Z,61156.78
2023-03-24T16:08:27.681Z,61161.56
2023-03-24T16:11:01.596Z,61156.78
2023-03-24T16:13:32.097Z,61166.06
2023-03-24T16:16:03.668Z,61149.28
2023-03-24T16:18:34.435Z,61145.16
2023-03-24T16:21:04.138Z,61131.63
2023-03-24T16:23:32.658Z,61112.66
2023-03-24T16:26:01.502Z,61102.28
2023-03-24T16:28:32.795Z,61093.97
2023-03-24T16:31:04.312Z,61094.91
2023-03-24T16:33:33.234Z,61099.00
2023-03-24T16:36:02.469Z,61089.06
2023-03-24T16:38:33.164Z,61087.28
2023-03-24T16:41:01.946Z,61076.09
2023-03-24T16:43:34.298Z,61067.91
2023-03-24T16:46:05.546Z,61065.19
2023-03-24T16:48:43.375Z,61059.72
2023-03-24T16:51:15.136Z,61061.78
2023-03-24T16:53:44.854Z,61057.41
2023-03-24T16:56:15.836Z,61047.31
2023-03-24T16:58:47.914Z,61052.50
2023-03-24T17:01:27.024Z,61057.81
2023-03-24T17:03:56.779Z,61047.72
2023-03-24T17:06:52.160Z,61048.53
2023-03-24T17:09:21.688Z,61044.72
2023-03-24T17:11:52.922Z,61053.44
2023-03-24T17:14:23.366Z,61047.56
2023-03-24T17:16:53.434Z,61051.25
2023-03-24T17:19:23.780Z,61041.03
2023-03-24T17:22:00.611Z,61042.13
2023-03-24T17:24:30.257Z,61045.81
2023-03-24T17:26:58.773Z,61037.34
2023-03-24T17:29:28.691Z,61034.06
2023-03-24T17:31:57.537Z,61029.84
2023-03-24T17:34:26.085Z,61016.22
2023-03-24T17:36:55.224Z,61022.06
2023-03-24T17:39:23.826Z,61016.47
2023-03-24T17:41:52.583Z,61005.97
2023-03-24T17:44:21.134Z,61006.53
2023-03-24T17:46:51.007Z,61000.66
2023-03-24T17:49:19.640Z,60992.59
2023-03-24T17:51:48.438Z,60985.50
2023-03-24T17:54:19.218Z,60982.50
2023-03-24T17:56:47.908Z,60980.34
2023-03-24T17:59:17.147Z,60973.78
2023-03-24T18:01:47.295Z,60971.22
2023-03-24T18:04:17.810Z,60978.16
2023-03-24T18:06:47.751Z,60970.25
2023-03-24T18:09:17.211Z,60975.44
2023-03-24T18:11:47.663Z,60963.97
2023-03-24T18:14:16.467Z,60950.75
2023-03-24T18:16:45.103Z,60951.03
2023-03-24T18:19:18.165Z,60939.19
2023-03-24T18:21:46.686Z,60937.25
2023-03-24T18:24:15.544Z,60930.16
2023-03-24T18:26:44.572Z,60926.91
2023-03-24T18:29:13.637Z,60921.47
2023-03-24T18:31:42.164Z,60910.84
2023-03-24T18:34:10.685Z,60909.47
2023-03-24T18:36:40.616Z,60908.78
2023-03-24T18:39:11.093Z,60901.31
2023-03-24T18:41:40.949Z,60895.84
2023-03-24T18:44:12.141Z,60887.41
2023-03-24T18:46:41.022Z,60885.09
2023-03-24T18:49:13.335Z,60882.63
2023-03-24T18:51:43.578Z,60877.88
2023-03-24T18:54:13.071Z,60872.97
2023-03-24T18:56:41.844Z,60866.16
2023-03-24T18:59:11.686Z,60860.69
2023-03-24T19:01:40.521Z,60860.41
2023-03-24T19:04:09.371Z,60854.97
2023-03-24T19:06:42.466Z,60846.38
2023-03-24T19:09:13.535Z,60847.34
2023-03-24T19:11:43.462Z,60842.03
2023-03-24T19:14:12.075Z,60831.28
2023-03-24T19:16:40.755Z,60828.81
2023-03-24T19:19:09.855Z,60824.47
2023-03-24T19:21:38.409Z,60817.25
2023-03-24T19:24:07.582Z,60809.50
2023-03-24T19:26:37.392Z,60811.41
2023-03-24T19:29:06.333Z,60810.59
2023-03-24T19:31:35.062Z,60823.38
2023-03-24T19:34:03.696Z,60826.09
2023-03-24T19:36:32.194Z,60820.25
2023-03-24T19:39:01.892Z,60818.22
2023-03-24T19:41:30.333Z,60817.53
2023-03-24T19:44:00.321Z,60828.81
2023-03-24T19:46:28.824Z,60828.44
2023-03-24T19:48:57.366Z,60828.44
2023-03-24T19:51:25.837Z,60821.47
2023-03-24T19:53:54.258Z,60826.22
2023-03-24T19:56:22.769Z,60811.69
2023-03-24T19:58:51.178Z,60821.19
2023-03-24T20:01:21.542Z,60815.91
2023-03-24T20:03:50.866Z,60819.03
2023-03-24T20:06:20.017Z,60805.56
2023-03-24T20:08:48.855Z,60818.63
2023-03-24T20:11:17.504Z,60805.16
2023-03-24T20:13:46.045Z,60801.19
2023-03-24T20:16:14.516Z,60809.22
2023-03-24T20:18:44.387Z,60804.34
2023-03-24T20:21:18.384Z,60792.09
2023-03-24T20:23:47.054Z,60789.09
2023-03-24T20:26:15.504Z,60783.09
2023-03-24T20:28:44.250Z,60780.50
2023-03-24T20:31:13.102Z,60770.31
2023-03-24T20:33:41.641Z,60772.47
2023-03-24T20:36:11.684Z,60765.66
2023-03-24T20:38:40.826Z,60755.88
2023-03-24T20:41:09.705Z,60757.66
2023-03-24T20:43:39.114Z,60748.53
2023-03-24T20:46:09.513Z,60741.72
2023-03-24T20:48:38.091Z,60740.66
2023-03-24T20:51:06.901Z,60746.22
2023-03-24T20:53:36.706Z,60745.00
2023-03-24T20:56:07.756Z,60742.81
2023-03-24T20:58:37.364Z,60732.63
2023-03-24T21:01:08.219Z,60742.81
2023-03-24T21:03:37.645Z,60730.06
2023-03-24T21:06:06.590Z,60723.38
2023-03-24T21:08:37.764Z,60737.38
2023-03-24T21:11:06.579Z,60724.59
2023-03-24T21:13:37.843Z,60722.16
2023-03-24T21:16:08.634Z,60730.03
2023-03-24T21:18:37.536Z,60716.16
2023-03-24T21:21:07.143Z,60706.13
2023-03-24T21:23:39.083Z,60714.00
2023-03-24T21:26:10.068Z,60705.28
2023-03-24T21:28:38.569Z,60699.31
2023-03-24T21:31:12.650Z,60698.19
2023-03-24T21:33:43.392Z,60699.16
2023-03-24T21:36:13.410Z,60694.69
2023-03-24T21:38:43.614Z,60693.44
2023-03-24T21:41:12.579Z,60693.28
2023-03-24T21:43:44.989Z,60682.97
2023-03-24T21:46:20.327Z,60677.81
2023-03-24T21:48:51.570Z,60681.34
2023-03-24T21:51:21.554Z,60685.13
2023-03-24T21:53:51.803Z,60670.59
2023-03-24T21:56:20.571Z,60672.09
2023-03-24T21:58:49.147Z,60668.28
2023-03-24T22:01:17.614Z,60673.72
2023-03-24T22:03:46.601Z,60667.06
2023-03-24T22:06:15.505Z,60660.13
2023-03-24T22:08:44.605Z,60653.06
2023-03-24T22:11:15.344Z,60650.91
2023-03-24T22:13:44.048Z,60657.94
2023-03-24T22:16:12.526Z,60659.03
2023-03-24T22:18:41.610Z,60653.31
2023-03-24T22:21:11.605Z,60643.69
2023-03-24T22:23:42.787Z,60640.56
2023-03-24T22:26:13.296Z,60641.09
2023-03-24T22:28:43.778Z,60643.97
2023-03-24T22:31:13.391Z,60642.75
2023-03-24T22:33:42.473Z,60630.38
2023-03-24T22:36:12.051Z,60638.78
2023-03-24T22:38:41.133Z,60637.84
2023-03-24T22:41:12.424Z,60636.75
2023-03-24T22:43:41.745Z,60638.94
2023-03-24T22:46:11.996Z,60629.69
2023-03-24T22:48:40.876Z,60622.63
2023-03-24T22:51:09.851Z,60614.06
2023-03-24T22:53:38.270Z,60611.19
2023-03-24T22:56:09.067Z,60607.53
2023-03-24T22:58:37.561Z,60604.13
2023-03-24T23:01:06.493Z,60596.13
2023-03-24T23:03:37.134Z,60594.91
2023-03-24T23:06:05.919Z,60594.38
2023-03-24T23:08:34.880Z,60592.72
2023-03-24T23:11:05.236Z,60592.72
2023-03-24T23:13:35.370Z,60589.31
2023-03-24T23:16:04.324Z,60591.66
2023-03-24T23:18:32.940Z,60581.06
2023-03-24T23:21:08.111Z,60582.94
2023-03-24T23:23:37.652Z,60593.28
2023-03-24T23:26:07.481Z,60578.06
2023-03-24T23:28:36.387Z,60581.31
2023-03-24T23:31:13.377Z,60571.69
2023-03-24T23:33:42.582Z,60564.63
2023-03-24T23:36:17.787Z,60563.41
2023-03-24T23:38:50.669Z,60555.41
2023-03-24T23:41:19.830Z,60556.19
2023-03-24T23:43:50.125Z,60545.63
2023-03-24T23:46:19.003Z,60543.31
2023-03-24T23:48:47.472Z,60536.25
2023-03-24T23:51:17.285Z,60534.22
2023-03-24T23:53:46.087Z,60530.41
2023-03-24T23:56:14.970Z,60528.66
2023-03-24T23:58:43.513Z,60520.09
